Time;durP1;ratioP1;P1;durP2;ratioP2;P2;SDS_P1;SDS_P2;PMS_P1;PMS_P2;Temp;Humidity;BMP_temperature;BMP_pressure;BME280_temperature;BME280_humidity;BME280_pressure;Samples;Min_cycle;Max_cycle;Signal;HPM_P1;HPM_P2
2022/01/28 00:00:12;;;;;;;6.63;1.05;;;5.50;94.00;;;;;;2081222;28;20497;-91
2022/01/28 00:01:17;;;;;;;5.32;0.90;;;5.50;94.10;;;;;;2103881;28;20033;-91
2022/01/28 00:03:21;;;;;;;3.05;0.73;;;5.50;94.10;;;;;;2097111;28;20051;-91
2022/01/28 00:04:23;;;;;;;4.53;0.90;;;5.40;94.00;;;;;;2098154;28;20068;-91
2022/01/28 00:05:24;;;;;;;5.85;1.00;;;5.40;94.10;;;;;;2098624;28;20044;-92
2022/01/28 00:06:24;;;;;;;5.00;0.90;;;5.40;94.10;;;;;;2101132;28;20075;-91
2022/01/28 00:07:25;;;;;;;4.03;0.80;;;5.40;94.10;;;;;;2096676;28;20036;-91
2022/01/28 00:08:26;;;;;;;4.90;1.23;;;5.40;94.10;;;;;;2082171;28;20140;-91
2022/01/28 00:09:26;;;;;;;3.88;0.90;;;5.40;94.10;;;;;;2088397;28;20513;-91
2022/01/28 00:10:28;;;;;;;4.93;0.90;;;5.40;94.10;;;;;;2103514;28;20478;-92
2022/01/28 00:11:28;;;;;;;6.90;1.27;;;5.40;94.10;;;;;;2094959;28;20855;-91
2022/01/28 00:12:30;;;;;;;4.55;0.98;;;5.40;94.10;;;;;;2088678;28;20040;-91
2022/01/28 00:13:37;;;;;;;5.72;1.05;;;5.30;94.10;;;;;;2088379;28;20037;-91
2022/01/28 00:15:07;;;;;;;5.32;1.17;;;5.40;94.10;;;;;;2082742;28;20043;-91
2022/01/28 00:36:28;;;;;;;6.65;1.67;;;5.40;94.00;;;;;;2081982;28;20522;-91
2022/01/28 00:37:11;;;;;;;4.88;0.80;;;5.20;93.90;;;;;;2091825;28;20056;-92
2022/01/28 00:38:15;;;;;;;5.15;0.90;;;5.20;93.90;;;;;;2073664;28;20496;-91
2022/01/28 00:39:15;;;;;;;6.22;1.08;;;5.20;93.90;;;;;;2081232;28;20050;-91
2022/01/28 00:40:16;;;;;;;5.00;0.77;;;5.20;93.90;;;;;;2082154;28;20104;-91
2022/01/28 00:41:17;;;;;;;8.02;1.27;;;5.20;93.90;;;;;;2090573;28;20037;-91
2022/01/28 00:42:18;;;;;;;4.43;1.10;;;5.20;94.00;;;;;;2090232;28;20041;-91
2022/01/28 00:43:18;;;;;;;4.68;0.70;;;5.20;94.00;;;;;;2073419;28;20065;-91
2022/01/28 00:44:19;;;;;;;5.07;0.82;;;5.20;94.00;;;;;;2073641;28;20049;-91
2022/01/28 00:45:20;;;;;;;5.57;0.98;;;5.10;94.00;;;;;;2104982;28;20453;-91
2022/01/28 00:46:21;;;;;;;4.88;0.98;;;5.20;94.00;;;;;;2095597;28;20041;-91
2022/01/28 00:47:21;;;;;;;3.95;0.93;;;5.10;94.00;;;;;;2097871;28;20036;-92
2022/01/28 00:48:22;;;;;;;5.22;0.90;;;5.10;94.00;;;;;;2098270;28;20135;-91
2022/01/28 00:49:22;;;;;;;7.80;1.35;;;5.10;94.00;;;;;;2089116;28;20190;-91
2022/01/28 00:50:24;;;;;;;6.28;0.68;;;5.10;94.00;;;;;;2098851;28;20056;-92
2022/01/28 00:51:24;;;;;;;4.15;0.80;;;5.10;94.00;;;;;;2097935;28;20039;-91
2022/01/28 00:52:26;;;;;;;4.85;1.00;;;5.10;94.00;;;;;;2081062;28;20061;-90
2022/01/28 00:53:27;;;;;;;5.47;1.00;;;5.10;94.00;;;;;;2079994;28;20047;-91
2022/01/28 00:54:27;;;;;;;3.70;1.10;;;5.10;94.00;;;;;;2081570;28;20527;-92
2022/01/28 00:55:28;;;;;;;4.97;0.90;;;5.10;94.00;;;;;;2081565;28;20044;-91
2022/01/28 00:56:29;;;;;;;5.07;0.90;;;5.10;94.00;;;;;;2096161;28;20032;-91
2022/01/28 00:57:29;;;;;;;4.22;1.00;;;5.10;94.00;;;;;;2088760;28;20140;-91
2022/01/28 00:58:30;;;;;;;4.35;0.90;;;5.00;94.00;;;;;;2086778;28;20045;-92
2022/01/28 00:59:30;;;;;;;3.75;0.80;;;5.10;94.10;;;;;;2089646;28;20036;-91
2022/01/28 01:00:31;;;;;;;4.10;0.90;;;5.10;94.00;;;;;;2087220;28;20060;-91
2022/01/28 01:01:32;;;;;;;8.13;1.00;;;5.00;94.00;;;;;;2085553;28;20060;-91
2022/01/28 01:02:33;;;;;;;5.22;0.90;;;5.10;94.00;;;;;;2087652;28;20072;-91
2022/01/28 01:03:33;;;;;;;3.38;0.75;;;5.00;94.00;;;;;;2081539;28;20460;-91
2022/01/28 01:04:34;;;;;;;6.70;0.90;;;5.00;94.00;;;;;;2097772;28;20098;-91
2022/01/28 01:05:34;;;;;;;5.85;1.17;;;5.00;94.00;;;;;;2089899;28;20144;-91
2022/01/28 01:06:35;;;;;;;4.10;0.88;;;5.00;94.00;;;;;;2087490;28;20515;-92
2022/01/28 01:07:36;;;;;;;4.82;1.05;;;5.00;94.00;;;;;;2089161;28;20036;-91
2022/01/28 01:08:37;;;;;;;4.35;0.80;;;5.00;94.10;;;;;;2082910;28;20165;-91
2022/01/28 01:09:38;;;;;;;5.95;1.00;;;5.10;94.00;;;;;;2082146;28;20502;-91
2022/01/28 01:10:39;;;;;;;5.63;1.15;;;5.00;94.00;;;;;;2079745;28;20048;-91
2022/01/28 01:11:41;;;;;;;5.20;0.90;;;5.00;94.00;;;;;;2089901;28;20112;-91
2022/01/28 01:12:45;;;;;;;5.28;0.85;;;5.00;94.00;;;;;;2094708;28;20055;-91
2022/01/28 01:13:46;;;;;;;5.13;1.17;;;5.10;94.00;;;;;;2086188;28;20037;-91
2022/01/28 01:14:47;;;;;;;3.35;0.60;;;5.00;94.20;;;;;;2089839;28;20036;-91
2022/01/28 01:15:52;;;;;;;7.47;1.38;;;5.00;93.90;;;;;;2098011;28;20031;-91
2022/01/28 01:18:20;;;;;;;4.87;0.90;;;5.00;93.90;;;;;;2082941;28;20029;-91
2022/01/28 01:19:21;;;;;;;5.28;0.90;;;5.00;93.90;;;;;;2101159;28;20266;-91
2022/01/28 01:21:27;;;;;;;6.63;0.80;;;5.00;94.00;;;;;;2089187;28;20037;-91
2022/01/28 01:22:37;;;;;;;4.35;0.70;;;5.00;93.90;;;;;;2081940;28;20044;-91
2022/01/28 01:23:47;;;;;;;5.38;1.02;;;5.00;94.00;;;;;;2073030;28;20041;-91
2022/01/28 01:24:51;;;;;;;5.28;0.90;;;4.90;94.00;;;;;;2079585;28;20133;-92
2022/01/28 01:26:05;;;;;;;5.07;1.00;;;5.00;94.00;;;;;;2086867;28;20264;-91
2022/01/28 01:27:06;;;;;;;3.55;0.85;;;4.90;94.00;;;;;;2078506;28;20037;-91
2022/01/28 01:28:06;;;;;;;2.53;0.50;;;4.90;94.00;;;;;;2075755;28;20038;-91
2022/01/28 01:29:11;;;;;;;4.18;0.88;;;4.90;94.00;;;;;;2089439;28;20486;-91
2022/01/28 01:30:14;;;;;;;3.10;0.80;;;4.90;94.00;;;;;;2083418;28;20451;-91
2022/01/28 01:31:18;;;;;;;3.30;0.65;;;4.90;94.00;;;;;;2079779;28;20041;-91
2022/01/28 01:32:19;;;;;;;4.78;0.63;;;4.90;94.00;;;;;;2082571;28;20042;-91
2022/01/28 01:33:21;;;;;;;4.38;0.73;;;4.90;94.00;;;;;;2081636;28;20040;-91
2022/01/28 01:34:23;;;;;;;3.22;0.80;;;4.90;94.00;;;;;;2089239;28;20045;-91
2022/01/28 01:35:23;;;;;;;3.85;0.70;;;4.90;94.00;;;;;;2089725;28;20037;-92
2022/01/28 01:36:24;;;;;;;3.78;0.85;;;4.90;94.00;;;;;;2080793;28;20234;-91
2022/01/28 01:37:25;;;;;;;4.97;0.80;;;4.90;94.00;;;;;;2084183;28;20042;-92
2022/01/28 01:38:28;;;;;;;5.43;1.20;;;4.90;94.00;;;;;;2081081;28;20041;-91
2022/01/28 01:39:33;;;;;;;5.32;0.90;;;4.90;94.20;;;;;;2078842;28;20060;-91
2022/01/28 01:41:12;;;;;;;6.03;1.42;;;4.90;94.00;;;;;;2091401;28;20037;-92
2022/01/28 01:42:18;;;;;;;2.97;0.70;;;4.90;94.00;;;;;;2089584;28;20071;-92
2022/01/28 01:52:32;;;;;;;7.35;1.15;;;4.80;93.80;;;;;;2062470;28;20113;-91
2022/01/28 01:53:33;;;;;;;4.88;0.57;;;4.80;93.80;;;;;;2059468;28;20578;-91
2022/01/28 01:54:40;;;;;;;3.83;0.80;;;4.80;93.90;;;;;;2064879;28;20137;-91
2022/01/28 01:55:41;;;;;;;4.00;0.80;;;4.80;93.90;;;;;;2081701;28;20032;-90
2022/01/28 01:56:42;;;;;;;4.30;0.80;;;4.80;93.90;;;;;;2096748;28;20139;-91
2022/01/28 01:57:44;;;;;;;6.15;1.13;;;4.80;93.90;;;;;;2096902;28;20039;-91
2022/01/28 01:58:46;;;;;;;7.20;0.80;;;4.80;93.90;;;;;;2095055;28;20033;-91
2022/01/28 01:59:48;;;;;;;3.92;0.70;;;4.80;93.90;;;;;;2098477;28;20354;-91
2022/01/28 02:00:48;;;;;;;4.20;0.63;;;4.80;94.00;;;;;;2104961;28;20047;-91
2022/01/28 02:01:49;;;;;;;6.25;0.75;;;4.80;94.00;;;;;;2104760;28;20184;-92
2022/01/28 02:02:50;;;;;;;3.97;0.50;;;4.80;94.00;;;;;;2095347;28;20469;-91
2022/01/28 02:03:51;;;;;;;7.05;0.98;;;4.80;94.00;;;;;;2083384;28;20068;-91
2022/01/28 02:04:51;;;;;;;5.32;0.90;;;4.80;94.00;;;;;;2089296;28;20051;-91
2022/01/28 02:05:56;;;;;;;5.90;1.20;;;4.80;94.00;;;;;;2089349;28;20029;-91
2022/01/28 02:06:57;;;;;;;5.32;0.80;;;4.80;94.00;;;;;;2072577;28;20041;-91
2022/01/28 02:08:05;;;;;;;4.43;0.70;;;4.80;94.00;;;;;;2089494;28;20120;-91
2022/01/28 02:09:07;;;;;;;4.63;0.73;;;4.80;94.00;;;;;;2084703;28;20534;-91
2022/01/28 02:10:08;;;;;;;4.22;0.60;;;4.80;94.00;;;;;;2089449;28;20112;-91
2022/01/28 02:11:09;;;;;;;5.65;1.00;;;4.80;94.00;;;;;;2088810;28;20127;-91
2022/01/28 02:12:10;;;;;;;5.60;0.90;;;4.80;94.00;;;;;;2089660;28;20029;-91
2022/01/28 02:13:11;;;;;;;5.35;0.75;;;4.80;94.00;;;;;;2097983;28;20040;-91
2022/01/28 02:14:11;;;;;;;7.10;0.88;;;4.80;93.90;;;;;;2101088;28;20115;-92
2022/01/28 02:15:12;;;;;;;4.93;0.93;;;4.80;93.90;;;;;;2091158;28;20033;-92
2022/01/28 02:16:12;;;;;;;4.60;1.02;;;4.80;93.90;;;;;;2095994;28;20037;-91
2022/01/28 02:17:13;;;;;;;5.43;0.82;;;4.80;93.90;;;;;;2088849;28;20033;-92
2022/01/28 02:18:14;;;;;;;3.45;0.85;;;4.80;93.90;;;;;;2072921;28;20116;-90
2022/01/28 02:19:14;;;;;;;4.68;0.90;;;4.80;93.80;;;;;;2081265;28;20040;-90
2022/01/28 02:20:32;;;;;;;4.82;0.73;;;4.80;93.80;;;;;;2071530;28;20062;-91
2022/01/28 02:21:46;;;;;;;3.42;0.95;;;4.80;93.80;;;;;;2076759;28;20725;-91
2022/01/28 02:22:47;;;;;;;4.78;0.75;;;4.80;93.90;;;;;;2099885;28;20041;-91
2022/01/28 02:23:53;;;;;;;3.65;0.80;;;4.80;93.80;;;;;;2094358;28;20067;-91
2022/01/28 02:24:54;;;;;;;5.53;0.80;;;4.80;93.90;;;;;;2089444;28;20082;-92
2022/01/28 02:25:57;;;;;;;7.25;1.20;;;4.80;93.90;;;;;;2100116;28;20040;-91
2022/01/28 02:26:58;;;;;;;2.47;0.73;;;4.80;93.90;;;;;;2106839;28;20438;-91
2022/01/28 02:28:06;;;;;;;3.53;0.85;;;4.80;93.90;;;;;;2106392;28;20040;-91
2022/01/28 02:29:11;;;;;;;4.32;0.80;;;4.80;93.90;;;;;;2100849;28;20041;-92
2022/01/28 02:30:13;;;;;;;5.95;1.10;;;4.80;93.90;;;;;;2090833;28;20036;-91
2022/01/28 02:31:19;;;;;;;6.20;0.60;;;4.80;93.90;;;;;;2075998;28;20038;-90
2022/01/28 02:32:20;;;;;;;3.17;0.75;;;4.80;93.90;;;;;;2086336;28;20030;-91
2022/01/28 02:33:24;;;;;;;6.95;0.90;;;4.80;93.90;;;;;;2085983;28;20061;-91
2022/01/28 02:34:24;;;;;;;5.40;0.70;;;4.80;93.90;;;;;;2083241;28;20125;-92
2022/01/28 02:35:25;;;;;;;4.60;0.70;;;4.70;93.90;;;;;;2085737;28;20041;-91
2022/01/28 02:36:26;;;;;;;4.90;0.68;;;4.80;93.90;;;;;;2086344;28;20040;-91
2022/01/28 02:37:27;;;;;;;5.85;1.00;;;4.80;93.90;;;;;;2107611;28;20039;-91
2022/01/28 02:38:27;;;;;;;5.25;0.80;;;4.70;93.90;;;;;;2099191;28;20488;-91
2022/01/28 02:39:29;;;;;;;8.48;0.98;;;4.80;93.90;;;;;;2074024;28;20041;-91
2022/01/28 02:40:30;;;;;;;4.80;0.90;;;4.80;93.90;;;;;;2082018;28;20038;-92
2022/01/28 02:41:36;;;;;;;4.32;0.80;;;4.80;93.90;;;;;;2099385;28;20102;-92
2022/01/28 02:42:54;;;;;;;3.20;0.68;;;4.80;93.90;;;;;;2097159;28;20091;-91
2022/01/28 02:44:11;;;;;;;4.50;0.82;;;4.80;93.90;;;;;;2090500;28;20036;-91
2022/01/28 02:45:21;;;;;;;3.90;0.82;;;4.80;93.80;;;;;;2088528;28;20128;-90
2022/01/28 02:46:24;;;;;;;3.72;0.70;;;4.80;93.80;;;;;;2081754;28;20122;-91
2022/01/28 02:47:36;;;;;;;4.18;0.70;;;4.80;93.80;;;;;;2092198;28;20594;-91
2022/01/28 02:48:40;;;;;;;6.50;0.73;;;4.80;93.80;;;;;;2099567;28;20510;-91
2022/01/28 02:49:43;;;;;;;3.80;0.77;;;4.80;93.80;;;;;;2090149;28;20162;-91
2022/01/28 02:51:01;;;;;;;5.35;1.08;;;4.80;93.80;;;;;;2089899;28;20034;-92
2022/01/28 02:52:03;;;;;;;2.80;0.70;;;4.80;93.80;;;;;;2097299;28;20037;-92
2022/01/28 02:53:08;;;;;;;3.45;0.50;;;4.80;93.80;;;;;;2094931;28;20108;-92
2022/01/28 02:54:16;;;;;;;3.05;0.70;;;4.80;93.90;;;;;;2090341;28;20038;-91
2022/01/28 02:55:17;;;;;;;4.07;0.55;;;4.80;93.80;;;;;;2105031;28;20564;-91
2022/01/28 02:56:31;;;;;;;4.90;0.90;;;4.80;93.80;;;;;;2101100;28;20503;-91
2022/01/28 02:57:33;;;;;;;4.38;0.77;;;4.80;93.80;;;;;;2102735;28;20451;-90
2022/01/28 02:58:34;;;;;;;5.60;0.77;;;4.80;93.80;;;;;;2096313;28;20044;-92
2022/01/28 02:59:35;;;;;;;4.13;0.82;;;4.80;93.80;;;;;;2095524;28;20058;-91
2022/01/28 03:00:35;;;;;;;3.95;0.70;;;4.80;93.80;;;;;;2087120;28;20083;-91
2022/01/28 03:01:36;;;;;;;5.53;0.77;;;4.80;93.80;;;;;;2076770;28;20058;-92
2022/01/28 03:02:36;;;;;;;4.70;0.70;;;4.80;93.80;;;;;;2091062;28;20040;-91
2022/01/28 03:03:37;;;;;;;5.15;0.70;;;4.80;93.80;;;;;;2090233;28;20056;-91
2022/01/28 03:05:57;;;;;;;2.72;0.70;;;4.80;93.90;;;;;;2089458;28;20564;-91
2022/01/28 03:06:57;;;;;;;4.03;0.70;;;4.80;93.80;;;;;;2092475;28;20079;-91
2022/01/28 03:08:01;;;;;;;6.40;1.02;;;4.80;93.90;;;;;;2097645;28;20033;-91
2022/01/28 03:09:13;;;;;;;3.58;0.57;;;4.80;93.80;;;;;;2099131;28;20052;-91
2022/01/28 03:10:28;;;;;;;3.85;0.65;;;4.80;93.80;;;;;;2090019;28;20043;-91
2022/01/28 03:15:21;;;;;;;4.93;0.70;;;4.80;93.90;;;;;;2091286;28;20469;-92
2022/01/28 03:16:22;;;;;;;3.85;0.73;;;4.80;93.80;;;;;;2079716;28;20049;-91
2022/01/28 03:18:47;;;;;;;5.18;1.00;;;4.80;93.80;;;;;;2084072;28;20044;-91
2022/01/28 03:19:52;;;;;;;4.63;0.80;;;4.80;93.80;;;;;;2077197;28;20026;-91
2022/01/28 03:21:56;;;;;;;4.10;0.73;;;4.80;93.80;;;;;;2082392;28;20034;-91
2022/01/28 03:22:56;;;;;;;3.88;0.70;;;4.80;93.80;;;;;;2077283;28;20033;-91
2022/01/28 03:23:58;;;;;;;4.55;0.80;;;4.80;93.80;;;;;;2080938;28;20033;-92
2022/01/28 03:24:59;;;;;;;3.13;0.73;;;4.80;93.80;;;;;;2098106;28;20028;-92
2022/01/28 03:26:00;;;;;;;2.53;0.50;;;4.80;93.80;;;;;;2105483;28;20039;-91
2022/01/28 03:27:07;;;;;;;5.03;0.73;;;4.80;93.80;;;;;;2089250;28;20055;-91
2022/01/28 03:28:08;;;;;;;5.45;0.88;;;4.80;93.80;;;;;;2079574;28;20187;-91
2022/01/28 03:29:08;;;;;;;3.03;0.57;;;4.80;93.80;;;;;;2090582;28;20534;-91
2022/01/28 03:30:09;;;;;;;3.40;0.50;;;4.80;93.80;;;;;;2107039;28;20506;-91
2022/01/28 03:31:10;;;;;;;4.47;1.17;;;4.80;93.80;;;;;;2075819;28;20068;-90
2022/01/28 03:32:11;;;;;;;4.32;0.80;;;4.70;93.80;;;;;;2074546;28;20121;-91
2022/01/28 03:33:11;;;;;;;3.38;0.50;;;4.80;93.80;;;;;;2098602;28;20040;-91
2022/01/28 03:34:12;;;;;;;4.22;0.88;;;4.70;93.80;;;;;;2101208;28;20071;-91
2022/01/28 03:35:17;;;;;;;3.85;0.55;;;4.80;93.80;;;;;;2097515;28;20029;-91
2022/01/28 03:36:18;;;;;;;6.03;0.70;;;4.70;93.80;;;;;;2088002;28;20084;-92
2022/01/28 03:37:20;;;;;;;3.85;0.50;;;4.70;93.80;;;;;;2084727;28;20049;-91
2022/01/28 03:38:21;;;;;;;5.28;0.90;;;4.70;93.80;;;;;;2093602;28;20044;-92
2022/01/28 03:39:22;;;;;;;5.10;0.68;;;4.70;93.80;;;;;;2090120;28;20039;-91
2022/01/28 03:40:22;;;;;;;3.65;0.88;;;4.70;94.10;;;;;;2076197;28;20034;-91
2022/01/28 03:41:24;;;;;;;3.13;0.68;;;4.70;93.80;;;;;;2090589;28;20037;-91
2022/01/28 03:42:25;;;;;;;4.15;0.85;;;4.70;93.80;;;;;;2092169;28;20021;-91
2022/01/28 03:43:26;;;;;;;3.92;0.88;;;4.70;93.80;;;;;;2090078;28;20493;-91
2022/01/28 03:44:26;;;;;;;6.35;1.00;;;4.70;93.80;;;;;;2090324;28;20080;-91
2022/01/28 03:45:28;;;;;;;5.47;0.80;;;4.70;93.80;;;;;;2082198;28;20165;-90
2022/01/28 03:46:30;;;;;;;6.07;1.02;;;4.70;93.80;;;;;;2082603;28;20104;-92
2022/01/28 03:47:31;;;;;;;6.03;0.75;;;4.70;93.80;;;;;;2082151;28;20034;-91
2022/01/28 03:48:31;;;;;;;3.08;0.63;;;4.70;93.80;;;;;;2082048;28;20041;-91
2022/01/28 03:49:32;;;;;;;3.92;0.77;;;4.70;93.80;;;;;;2081610;28;20132;-92
2022/01/28 03:50:34;;;;;;;3.78;0.57;;;4.70;93.80;;;;;;2073140;28;20034;-92
2022/01/28 03:51:35;;;;;;;3.63;0.57;;;4.70;93.80;;;;;;2089090;28;20037;-91
2022/01/28 03:52:35;;;;;;;5.40;0.90;;;4.70;93.80;;;;;;2092811;28;20045;-91
2022/01/28 03:53:36;;;;;;;5.32;1.00;;;4.70;93.80;;;;;;2088993;28;20068;-91
2022/01/28 03:54:37;;;;;;;3.00;0.65;;;4.70;93.80;;;;;;2074995;28;20084;-91
2022/01/28 03:55:37;;;;;;;3.35;0.60;;;4.70;93.80;;;;;;2083090;28;20033;-91
2022/01/28 03:56:38;;;;;;;6.03;1.08;;;4.70;93.80;;;;;;2093219;28;20506;-91
2022/01/28 03:57:39;;;;;;;6.10;0.80;;;4.70;93.80;;;;;;2084155;28;20500;-91
2022/01/28 03:58:39;;;;;;;4.60;0.80;;;4.70;93.80;;;;;;2089308;28;20151;-92
2022/01/28 03:59:40;;;;;;;3.95;0.80;;;4.60;93.80;;;;;;2100631;28;20504;-92
2022/01/28 04:00:41;;;;;;;4.57;0.95;;;4.60;93.80;;;;;;2090133;28;20044;-92
2022/01/28 04:01:45;;;;;;;3.22;0.60;;;4.70;93.80;;;;;;2091896;28;20040;-91
2022/01/28 04:02:47;;;;;;;2.65;0.57;;;4.70;93.80;;;;;;2085057;28;20037;-91
2022/01/28 04:12:22;;;;;;;7.95;0.90;;;4.50;93.80;;;;;;2096222;28;20055;-92
2022/01/28 04:13:25;;;;;;;4.38;0.80;;;4.50;93.80;;;;;;2085591;28;20041;-92
2022/01/28 04:15:49;;;;;;;5.78;0.70;;;4.50;93.90;;;;;;2097496;28;20052;-91
2022/01/28 04:18:09;;;;;;;5.15;0.80;;;4.50;93.90;;;;;;2098461;28;20044;-91
2022/01/28 04:19:09;;;;;;;4.05;0.70;;;4.50;93.90;;;;;;2090851;28;20104;-92
2022/01/28 04:20:10;;;;;;;1.75;0.50;;;4.50;94.10;;;;;;2090718;28;20037;-91
2022/01/28 04:21:11;;;;;;;3.35;0.55;;;4.50;93.90;;;;;;2078692;28;20060;-91
2022/01/28 04:22:11;;;;;;;5.18;0.95;;;4.50;93.90;;;;;;2073812;28;20060;-91
2022/01/28 04:23:12;;;;;;;4.53;0.65;;;4.50;93.90;;;;;;2089051;28;20041;-92
2022/01/28 04:24:13;;;;;;;4.63;0.77;;;4.50;93.90;;;;;;2087795;28;20049;-91
2022/01/28 04:25:14;;;;;;;3.45;0.60;;;4.50;93.90;;;;;;2092331;28;20037;-91
2022/01/28 04:26:14;;;;;;;3.60;0.70;;;4.50;93.90;;;;;;2086574;28;20021;-92
2022/01/28 04:27:15;;;;;;;3.20;0.68;;;4.60;93.90;;;;;;2082480;28;20033;-91
2022/01/28 04:28:16;;;;;;;4.93;0.90;;;4.60;93.90;;;;;;2083391;28;20053;-91
2022/01/28 04:29:17;;;;;;;2.80;0.60;;;4.60;93.90;;;;;;2086372;28;20037;-92
2022/01/28 04:30:18;;;;;;;3.72;0.60;;;4.60;93.90;;;;;;2084257;28;20037;-91
2022/01/28 04:31:19;;;;;;;4.38;0.73;;;4.60;93.90;;;;;;2105226;28;20091;-91
2022/01/28 04:32:20;;;;;;;4.53;0.70;;;4.60;93.90;;;;;;2098547;28;20037;-91
2022/01/28 04:33:21;;;;;;;4.57;0.70;;;4.70;93.90;;;;;;2089936;28;20153;-91
2022/01/28 04:34:23;;;;;;;3.08;0.63;;;4.70;94.10;;;;;;2096231;28;20040;-91
2022/01/28 04:35:24;;;;;;;3.65;0.60;;;4.60;93.80;;;;;;2081479;28;20034;-91
2022/01/28 04:36:27;;;;;;;3.90;0.60;;;4.60;93.80;;;;;;2073554;28;20053;-91
2022/01/28 04:38:37;;;;;;;5.50;1.30;;;4.60;93.80;;;;;;2081389;28;20484;-91
2022/01/28 04:40:57;;;;;;;2.63;0.73;;;4.60;93.90;;;;;;2081722;28;20499;-91
2022/01/28 04:43:14;;;;;;;2.53;0.57;;;4.60;93.90;;;;;;2098713;28;20029;-91
2022/01/28 04:44:21;;;;;;;4.45;1.40;;;4.60;94.20;;;;;;2098461;28;20561;-92
2022/01/28 04:45:38;;;;;;;4.18;0.60;;;4.60;93.90;;;;;;2101283;28;20047;-91
2022/01/28 04:49:09;;;;;;;5.43;0.82;;;4.50;94.00;;;;;;2103433;28;20047;-91
2022/01/28 04:51:48;;;;;;;4.30;0.65;;;4.50;94.00;;;;;;2094805;28;20029;-91
2022/01/28 04:54:34;;;;;;;3.28;0.70;;;4.50;94.00;;;;;;2097532;28;20028;-91
2022/01/28 04:56:06;;;;;;;6.68;0.65;;;4.50;94.00;;;;;;2093821;28;20037;-91
2022/01/28 04:58:22;;;;;;;3.22;0.60;;;4.40;94.00;;;;;;2084107;28;20053;-91
2022/01/28 05:03:15;;;;;;;3.60;0.60;;;4.40;94.00;;;;;;2099169;28;20536;-91
2022/01/28 05:05:07;;;;;;;5.40;0.60;;;4.40;94.30;;;;;;2093171;28;20064;-91
2022/01/28 05:10:12;;;;;;;4.97;0.50;;;4.40;94.10;;;;;;2081140;28;20072;-91
2022/01/28 05:23:06;;;;;;;4.82;0.70;;;4.30;94.10;;;;;;2090140;28;20499;-91
2022/01/28 05:27:07;;;;;;;3.03;0.60;;;4.30;94.10;;;;;;2089040;28;20041;-91
2022/01/28 05:28:12;;;;;;;3.60;0.52;;;4.30;94.10;;;;;;2083244;28;20510;-91
2022/01/28 05:29:12;;;;;;;3.22;0.52;;;4.20;94.10;;;;;;2066348;28;20566;-91
2022/01/28 05:30:13;;;;;;;3.70;0.70;;;4.20;94.10;;;;;;2080982;28;20171;-91
2022/01/28 05:31:14;;;;;;;4.72;0.68;;;4.20;94.20;;;;;;2085709;28;20032;-91
2022/01/28 05:32:14;;;;;;;5.63;0.80;;;4.20;94.40;;;;;;2081004;28;20511;-91
2022/01/28 05:33:15;;;;;;;3.60;0.77;;;4.20;94.20;;;;;;2072659;28;20034;-91
2022/01/28 05:34:17;;;;;;;4.35;0.68;;;4.20;94.20;;;;;;2081680;28;20048;-91
2022/01/28 05:35:18;;;;;;;4.13;0.63;;;4.20;94.30;;;;;;2085208;28;20215;-91
2022/01/28 05:36:18;;;;;;;4.40;0.70;;;4.20;94.30;;;;;;2065095;28;20073;-91
2022/01/28 05:37:19;;;;;;;3.42;0.50;;;4.20;94.60;;;;;;2088257;28;20047;-91
2022/01/28 05:38:20;;;;;;;4.00;0.70;;;4.20;94.30;;;;;;2093170;28;20063;-91
2022/01/28 05:39:20;;;;;;;5.20;1.05;;;4.10;94.30;;;;;;2081317;28;20046;-91
2022/01/28 05:40:21;;;;;;;4.03;0.60;;;4.20;94.30;;;;;;2081646;28;20132;-91
2022/01/28 05:41:22;;;;;;;2.20;0.45;;;4.20;94.40;;;;;;2089341;28;20537;-91
2022/01/28 05:42:22;;;;;;;4.43;0.73;;;4.20;94.40;;;;;;2090884;28;20387;-91
2022/01/28 05:43:23;;;;;;;2.90;0.65;;;4.10;94.30;;;;;;2087140;28;20079;-90
2022/01/28 05:44:24;;;;;;;4.85;0.77;;;4.10;94.40;;;;;;2074037;28;20078;-91
2022/01/28 05:45:25;;;;;;;3.22;0.55;;;4.10;94.40;;;;;;2081150;28;20037;-90
2022/01/28 05:46:28;;;;;;;6.63;0.68;;;4.10;94.40;;;;;;2089188;28;20041;-91
2022/01/28 05:47:28;;;;;;;4.03;0.70;;;4.10;94.40;;;;;;2072368;28;20038;-91
2022/01/28 05:48:29;;;;;;;5.82;0.82;;;4.10;94.40;;;;;;2073973;28;20075;-91
2022/01/28 05:49:31;;;;;;;2.75;0.50;;;4.10;94.40;;;;;;2080272;28;20056;-91
2022/01/28 05:50:31;;;;;;;3.58;0.70;;;4.10;94.40;;;;;;2080939;28;20086;-91
2022/01/28 05:51:32;;;;;;;3.00;0.60;;;4.10;94.40;;;;;;2079352;28;20033;-91
2022/01/28 05:52:33;;;;;;;4.70;0.70;;;4.10;94.40;;;;;;2082863;28;20033;-91
2022/01/28 05:53:34;;;;;;;2.90;0.63;;;4.10;94.50;;;;;;2086573;28;20071;-91
2022/01/28 05:54:35;;;;;;;3.25;0.90;;;4.10;94.50;;;;;;2088029;28;20049;-90
2022/01/28 05:55:36;;;;;;;3.63;0.80;;;4.10;94.70;;;;;;2078168;28;20034;-91
2022/01/28 05:56:37;;;;;;;3.30;0.70;;;4.10;94.50;;;;;;2065136;28;20172;-90
2022/01/28 05:57:37;;;;;;;4.68;0.73;;;4.10;94.50;;;;;;2078406;28;20029;-90
2022/01/28 05:58:38;;;;;;;2.50;0.77;;;4.10;94.80;;;;;;2082152;28;20482;-91
2022/01/28 05:59:40;;;;;;;4.53;0.70;;;4.00;94.50;;;;;;2074362;28;20034;-91
2022/01/28 06:00:41;;;;;;;2.55;0.50;;;4.10;94.50;;;;;;2081957;28;20388;-91
2022/01/28 06:01:41;;;;;;;3.28;0.60;;;4.10;94.50;;;;;;2070449;28;20145;-92
2022/01/28 06:02:42;;;;;;;3.10;0.70;;;4.10;94.50;;;;;;2090009;28;20037;-89
2022/01/28 06:03:44;;;;;;;4.25;0.68;;;4.10;94.50;;;;;;2084866;28;20087;-90
2022/01/28 06:04:45;;;;;;;3.53;0.52;;;4.10;94.50;;;;;;2078969;28;20131;-90
2022/01/28 06:05:48;;;;;;;5.07;0.60;;;4.10;94.50;;;;;;2091581;28;20087;-90
2022/01/28 06:06:48;;;;;;;3.53;0.90;;;4.10;94.50;;;;;;2084546;28;20030;-91
2022/01/28 06:07:49;;;;;;;3.88;0.60;;;4.10;94.50;;;;;;2099220;28;20036;-89
2022/01/28 06:08:55;;;;;;;3.13;0.60;;;4.10;94.50;;;;;;2104763;28;20083;-91
2022/01/28 06:09:55;;;;;;;3.38;0.80;;;4.10;94.50;;;;;;2091455;28;20017;-90
2022/01/28 06:10:56;;;;;;;3.70;0.70;;;4.10;94.50;;;;;;2089184;28;20484;-90
2022/01/28 06:11:56;;;;;;;5.47;0.80;;;4.10;94.50;;;;;;2078939;28;20509;-90
2022/01/28 06:12:57;;;;;;;2.97;0.60;;;4.10;94.40;;;;;;2093956;28;20053;-91
2022/01/28 06:13:58;;;;;;;3.78;0.77;;;4.10;94.50;;;;;;2082786;28;20137;-91
2022/01/28 06:14:58;;;;;;;4.80;0.60;;;4.20;94.50;;;;;;2083915;28;20283;-90
2022/01/28 06:15:59;;;;;;;4.70;0.80;;;4.20;94.50;;;;;;2095781;28;20036;-90
2022/01/28 06:16:59;;;;;;;3.65;0.60;;;4.20;94.40;;;;;;2100527;28;20103;-90
2022/01/28 06:18:00;;;;;;;5.95;0.70;;;4.20;94.40;;;;;;2096449;28;20403;-92
2022/01/28 06:19:01;;;;;;;2.63;0.60;;;4.20;94.40;;;;;;2083292;28;20069;-90
2022/01/28 06:20:04;;;;;;;4.65;0.77;;;4.20;94.40;;;;;;2094671;28;20035;-90
2022/01/28 06:21:05;;;;;;;3.80;0.68;;;4.30;94.40;;;;;;2087194;28;20084;-90
2022/01/28 06:22:06;;;;;;;4.18;0.80;;;4.30;94.40;;;;;;2077166;28;20050;-90
2022/01/28 06:23:06;;;;;;;4.13;0.98;;;4.30;94.40;;;;;;2090491;28;20840;-91
2022/01/28 06:24:07;;;;;;;4.57;0.60;;;4.30;94.40;;;;;;2080065;28;20542;-91
2022/01/28 06:25:09;;;;;;;4.00;0.90;;;4.40;94.40;;;;;;2083059;28;20049;-91
2022/01/28 06:26:10;;;;;;;5.40;0.60;;;4.40;94.40;;;;;;2092476;28;20060;-90
2022/01/28 06:27:10;;;;;;;3.42;0.70;;;4.40;94.30;;;;;;2091705;28;20131;-79
2022/01/28 06:28:11;;;;;;;4.72;0.70;;;4.40;94.30;;;;;;2091294;28;20045;-91
2022/01/28 06:29:12;;;;;;;5.95;0.95;;;4.40;94.30;;;;;;2101518;28;20086;-89
2022/01/28 06:30:13;;;;;;;4.05;0.70;;;4.40;94.30;;;;;;2096490;28;20138;-89
2022/01/28 06:31:14;;;;;;;3.60;0.82;;;4.40;94.30;;;;;;2074618;28;20070;-90
2022/01/28 06:32:16;;;;;;;4.85;0.68;;;4.40;94.30;;;;;;2082615;28;20129;-91
2022/01/28 06:33:16;;;;;;;3.50;0.68;;;4.50;94.30;;;;;;2096190;28;20032;-90
2022/01/28 06:34:17;;;;;;;4.22;0.73;;;4.40;94.30;;;;;;2095677;28;20041;-89
2022/01/28 06:35:18;;;;;;;2.85;0.65;;;4.50;94.30;;;;;;2095580;28;20040;-90
2022/01/28 06:36:21;;;;;;;4.05;0.77;;;4.50;94.30;;;;;;2099737;28;20489;-90
2022/01/28 06:37:21;;;;;;;4.75;0.90;;;4.50;94.30;;;;;;2097924;28;20040;-90
2022/01/28 06:38:22;;;;;;;3.03;0.60;;;4.50;94.30;;;;;;2088013;28;20047;-91
2022/01/28 06:39:22;;;;;;;3.58;0.60;;;4.40;94.20;;;;;;2091084;28;20410;-90
2022/01/28 06:40:23;;;;;;;3.65;0.60;;;4.50;94.30;;;;;;2090169;28;20037;-90
2022/01/28 06:41:24;;;;;;;6.65;1.02;;;4.50;94.30;;;;;;2094968;28;20059;-90
2022/01/28 06:42:24;;;;;;;2.88;0.80;;;4.50;94.30;;;;;;2101148;28;20485;-90
2022/01/28 06:43:25;;;;;;;3.53;0.57;;;4.50;94.30;;;;;;2095663;28;20124;-90
2022/01/28 06:44:26;;;;;;;3.75;0.70;;;4.50;94.30;;;;;;2083423;28;20053;-90
2022/01/28 06:45:26;;;;;;;4.50;0.70;;;4.50;94.30;;;;;;2092604;28;20067;-90
2022/01/28 06:46:27;;;;;;;4.22;0.70;;;4.50;94.30;;;;;;2105667;28;20627;-93
2022/01/28 06:47:28;;;;;;;3.25;0.55;;;4.40;94.30;;;;;;2083871;28;20037;-90
2022/01/28 06:48:28;;;;;;;3.38;0.73;;;4.40;94.30;;;;;;2092058;28;20053;-87
2022/01/28 06:49:29;;;;;;;3.60;0.70;;;4.40;94.30;;;;;;2100392;28;20041;-90
2022/01/28 06:50:30;;;;;;;3.67;0.70;;;4.40;94.30;;;;;;2100287;28;20379;-91
2022/01/28 06:51:32;;;;;;;4.32;0.90;;;4.40;94.30;;;;;;2085073;28;20499;-87
2022/01/28 06:52:33;;;;;;;4.03;0.60;;;4.40;94.40;;;;;;2082816;28;20064;-89
2022/01/28 06:53:34;;;;;;;3.67;0.70;;;4.40;94.40;;;;;;2098754;28;20036;-90
2022/01/28 06:54:35;;;;;;;2.75;0.60;;;4.40;94.40;;;;;;2089982;28;20128;-90